createdAt,value
2018-08-20T00:00:32.764Z,82.61
2018-08-20T00:01:32.777Z,82.42
2018-08-20T00:02:32.794Z,82.90
2018-08-20T00:03:32.818Z,82.76
2018-08-20T00:04:32.823Z,82.61
2018-08-20T00:05:32.839Z,82.51
2018-08-20T00:06:32.857Z,82.90
2018-08-20T00:07:32.874Z,82.61
2018-08-20T00:08:32.888Z,83.05
2018-08-20T00:09:32.912Z,83.09
2018-08-20T00:10:32.921Z,83.25
2018-08-20T00:11:32.939Z,83.63
2018-08-20T00:12:32.954Z,83.63
2018-08-20T00:13:32.970Z,83.34
2018-08-20T00:14:32.985Z,83.73
2018-08-20T00:15:33.003Z,83.73
2018-08-20T00:16:33.020Z,83.83
2018-08-20T00:17:33.036Z,84.31
2018-08-20T00:18:33.049Z,84.01
2018-08-20T00:19:33.070Z,83.92
2018-08-20T00:20:33.084Z,84.21
2018-08-20T00:21:33.098Z,84.50
2018-08-20T00:22:33.116Z,84.50
2018-08-20T00:23:33.131Z,84.31
2018-08-20T00:24:33.147Z,84.41
2018-08-20T00:25:33.163Z,84.21
2018-08-20T00:26:33.177Z,84.50
2018-08-20T00:27:33.195Z,84.21
2018-08-20T00:28:33.593Z,84.59
2018-08-20T00:29:33.227Z,84.59
2018-08-20T00:30:33.248Z,84.94
2018-08-20T00:31:33.259Z,85.23
2018-08-20T00:32:33.277Z,85.42
2018-08-20T00:33:33.292Z,85.13
2018-08-20T00:34:33.314Z,85.23
2018-08-20T00:35:33.327Z,85.42
2018-08-20T00:36:33.339Z,85.03
2018-08-20T00:37:33.354Z,85.91
2018-08-20T00:38:33.380Z,86.10
2018-08-20T00:39:33.386Z,85.71
2018-08-20T00:40:33.402Z,85.71
2018-08-20T00:41:33.418Z,85.52
2018-08-20T00:42:33.433Z,85.52
2018-08-20T00:43:33.451Z,85.52
2018-08-20T00:44:33.466Z,85.52
2018-08-20T00:45:33.482Z,85.71
2018-08-20T00:46:33.502Z,85.52
2018-08-20T00:47:33.514Z,85.91
2018-08-20T00:48:33.533Z,85.61
2018-08-20T00:49:33.547Z,85.81
2018-08-20T00:50:33.564Z,85.81
2018-08-20T00:51:33.578Z,86.00
2018-08-20T00:52:33.595Z,86.29
2018-08-20T00:53:33.616Z,85.42
2018-08-20T00:54:33.626Z,85.81
2018-08-20T00:55:33.645Z,86.10
2018-08-20T00:56:33.663Z,85.91
2018-08-20T00:57:33.673Z,85.52
2018-08-20T00:58:33.689Z,85.94
2018-08-20T00:59:33.707Z,86.10
2018-08-20T01:00:33.723Z,85.75
2018-08-20T01:01:33.738Z,85.71
2018-08-20T01:02:33.755Z,85.71
2018-08-20T01:03:33.776Z,85.61
2018-08-20T01:04:33.786Z,85.71
2018-08-20T01:05:33.801Z,85.91
2018-08-20T01:06:33.817Z,85.81
2018-08-20T01:07:33.838Z,85.71
2018-08-20T01:08:33.850Z,86.58
2018-08-20T01:09:33.871Z,86.44
2018-08-20T01:10:33.880Z,87.12
2018-08-20T01:11:33.899Z,87.12
2018-08-20T01:12:33.913Z,86.92
2018-08-20T01:13:33.932Z,87.12
2018-08-20T01:14:33.958Z,87.02
2018-08-20T01:15:33.961Z,87.50
2018-08-20T01:16:33.976Z,86.92
2018-08-20T01:17:33.994Z,87.02
2018-08-20T01:18:34.010Z,87.30
2018-08-20T01:19:34.026Z,87.21
2018-08-20T01:20:34.040Z,87.70
2018-08-20T01:21:34.055Z,87.40
2018-08-20T01:22:34.075Z,87.50
2018-08-20T01:23:34.091Z,87.40
2018-08-20T01:24:34.110Z,87.50
2018-08-20T01:25:34.119Z,87.21
2018-08-20T01:26:34.136Z,86.82
2018-08-20T01:27:34.152Z,86.92
2018-08-20T01:28:34.168Z,87.50
2018-08-20T01:29:34.183Z,87.40
2018-08-20T01:30:34.198Z,87.70
2018-08-20T01:31:34.214Z,87.88
2018-08-20T01:32:34.262Z,87.30
2018-08-20T01:33:34.249Z,87.21
2018-08-20T01:34:34.266Z,87.50
2018-08-20T01:35:34.277Z,87.50
2018-08-20T01:36:34.296Z,87.54
2018-08-20T01:37:34.317Z,87.26
2018-08-20T01:38:34.326Z,87.64
2018-08-20T01:39:34.340Z,87.54
2018-08-20T01:40:34.357Z,87.74
2018-08-20T01:41:34.387Z,87.83
2018-08-20T01:42:34.389Z,87.16
2018-08-20T01:43:34.412Z,87.06
2018-08-20T01:44:34.424Z,87.54
2018-08-20T01:45:34.436Z,86.77
2018-08-20T01:46:34.457Z,86.58
2018-08-20T01:47:34.469Z,87.06
2018-08-20T01:48:34.486Z,86.77
2018-08-20T01:49:34.500Z,86.96
2018-08-20T01:50:34.521Z,87.88
2018-08-20T01:51:34.532Z,87.70
2018-08-20T01:52:34.549Z,88.37
2018-08-20T01:53:34.568Z,88.08
2018-08-20T01:54:34.593Z,88.95
2018-08-20T01:55:34.596Z,88.85
2018-08-20T01:56:34.613Z,88.85
2018-08-20T01:57:34.631Z,88.46
2018-08-20T01:58:34.651Z,88.75
2018-08-20T01:59:34.660Z,88.85
2018-08-20T02:00:34.675Z,88.75
2018-08-20T02:01:34.696Z,88.08
2018-08-20T02:02:34.711Z,88.08
2018-08-20T02:03:34.723Z,88.12
2018-08-20T02:04:34.742Z,88.75
2018-08-20T02:05:34.758Z,88.60
2018-08-20T02:06:34.776Z,88.51
2018-08-20T02:07:34.788Z,88.89
2018-08-20T02:08:34.804Z,88.41
2018-08-20T02:09:34.822Z,87.88
2018-08-20T02:10:34.836Z,87.93
2018-08-20T02:11:34.852Z,88.41
2018-08-20T02:12:34.869Z,88.27
2018-08-20T02:13:34.881Z,88.85
2018-08-20T02:14:34.898Z,88.75
2018-08-20T02:15:34.914Z,88.75
2018-08-20T02:16:34.931Z,88.46
2018-08-20T02:17:34.950Z,88.56
2018-08-20T02:18:34.961Z,89.43
2018-08-20T02:19:34.979Z,89.33
2018-08-20T02:20:34.993Z,88.95
2018-08-20T02:21:35.012Z,89.04
2018-08-20T02:22:35.024Z,89.14
2018-08-20T02:23:35.041Z,89.23
2018-08-20T02:24:35.057Z,89.04
2018-08-20T02:25:35.077Z,89.04
2018-08-20T02:26:35.092Z,89.04
2018-08-20T02:27:35.106Z,89.43
2018-08-20T02:28:35.122Z,89.33
2018-08-20T02:29:35.137Z,89.14
2018-08-20T02:30:35.152Z,89.43
2018-08-20T02:31:35.172Z,90.20
2018-08-20T02:32:35.193Z,89.62
2018-08-20T02:33:35.206Z,90.10
2018-08-20T02:34:35.218Z,90.30
2018-08-20T02:35:35.233Z,90.68
2018-08-20T02:36:35.250Z,90.39
2018-08-20T02:37:35.268Z,90.30
2018-08-20T02:38:35.283Z,90.68
2018-08-20T02:39:35.303Z,90.30
2018-08-20T02:40:35.315Z,90.10
2018-08-20T02:41:35.333Z,90.30
2018-08-20T02:42:35.345Z,90.97
2018-08-20T02:43:35.360Z,91.06
2018-08-20T02:44:35.387Z,90.83
2018-08-20T02:45:35.397Z,90.83
2018-08-20T02:46:35.410Z,90.88
2018-08-20T02:47:35.424Z,91.60
2018-08-20T02:48:35.446Z,91.50
2018-08-20T02:49:35.457Z,91.31
2018-08-20T02:50:35.477Z,91.89
2018-08-20T02:51:35.498Z,91.69
2018-08-20T02:52:35.504Z,91.79
2018-08-20T02:53:35.518Z,91.89
2018-08-20T02:54:35.536Z,91.99
2018-08-20T02:55:35.551Z,92.03
2018-08-20T02:56:35.567Z,91.64
2018-08-20T02:57:35.580Z,92.03
2018-08-20T02:58:35.602Z,91.26
2018-08-20T02:59:35.620Z,91.36
2018-08-20T03:00:35.634Z,91.45
2018-08-20T03:01:35.649Z,91.69
2018-08-20T03:02:35.665Z,91.36
2018-08-20T03:03:35.688Z,91.16
2018-08-20T03:04:35.696Z,91.16
2018-08-20T03:05:35.709Z,91.26
2018-08-20T03:06:35.724Z,91.16
2018-08-20T03:07:35.744Z,91.55
2018-08-20T03:08:35.756Z,91.36
2018-08-20T03:09:35.773Z,91.26
2018-08-20T03:10:35.786Z,91.26
2018-08-20T03:11:35.805Z,91.26
2018-08-20T03:12:35.826Z,91.26
2018-08-20T03:13:35.834Z,91.26
2018-08-20T03:14:35.849Z,91.06
2018-08-20T03:15:35.871Z,91.06
2018-08-20T03:16:35.888Z,91.74
2018-08-20T03:17:35.978Z,92.18
2018-08-20T03:18:35.919Z,92.13
2018-08-20T03:19:35.930Z,92.08
2018-08-20T03:20:35.947Z,92.18
2018-08-20T03:21:35.962Z,92.51
2018-08-20T03:22:35.977Z,92.13
2018-08-20T03:23:36.003Z,92.47
2018-08-20T03:24:36.011Z,92.85
2018-08-20T03:25:36.027Z,92.85
2018-08-20T03:26:36.045Z,92.66
2018-08-20T03:27:36.065Z,92.76
2018-08-20T03:28:36.147Z,92.27
2018-08-20T03:29:36.093Z,92.47
2018-08-20T03:30:36.107Z,92.76
2018-08-20T03:31:36.122Z,92.76
2018-08-20T03:32:36.140Z,92.76
2018-08-20T03:33:36.151Z,92.94
2018-08-20T03:34:36.169Z,92.94
2018-08-20T03:35:36.189Z,92.94
2018-08-20T03:36:36.200Z,92.94
2018-08-20T03:37:36.224Z,92.76
2018-08-20T03:38:36.244Z,93.04
2018-08-20T03:39:36.251Z,93.33
2018-08-20T03:40:36.263Z,92.66
2018-08-20T03:41:36.277Z,92.37
2018-08-20T03:42:36.301Z,92.47
2018-08-20T03:43:36.309Z,92.56
2018-08-20T03:44:36.329Z,92.76
2018-08-20T03:45:36.352Z,92.80
2018-08-20T03:46:36.355Z,92.37
2018-08-20T03:47:36.375Z,92.61
2018-08-20T03:48:36.387Z,92.94
2018-08-20T03:49:36.404Z,92.56
2018-08-20T03:50:36.422Z,92.56
2018-08-20T03:51:36.436Z,92.85
2018-08-20T03:52:36.455Z,93.43
2018-08-20T03:53:36.465Z,93.43
2018-08-20T03:54:36.485Z,93.24
2018-08-20T03:55:36.499Z,92.85
2018-08-20T03:56:36.513Z,92.56
2018-08-20T03:57:36.529Z,93.43
2018-08-20T03:58:36.549Z,93.04
2018-08-20T03:59:36.569Z,93.14
2018-08-20T04:00:36.579Z,93.62
2018-08-20T04:01:36.592Z,93.52
2018-08-20T04:02:36.611Z,93.04
2018-08-20T04:03:36.628Z,92.76
2018-08-20T04:04:36.645Z,93.24
2018-08-20T04:05:36.655Z,92.76
2018-08-20T04:06:36.674Z,92.76
2018-08-20T04:07:36.686Z,93.43
2018-08-20T04:08:36.704Z,93.24
2018-08-20T04:09:36.720Z,93.24
2018-08-20T04:10:36.738Z,93.91
2018-08-20T04:11:36.773Z,93.52
2018-08-20T04:12:36.766Z,94.01
2018-08-20T04:13:36.784Z,93.52
2018-08-20T04:14:36.796Z,93.62
2018-08-20T04:15:36.812Z,94.01
2018-08-20T04:16:36.837Z,94.29
2018-08-20T04:17:36.848Z,94.49
2018-08-20T04:18:36.866Z,94.01
2018-08-20T04:19:36.878Z,94.29
2018-08-20T04:20:36.892Z,94.29
2018-08-20T04:21:36.913Z,94.20
2018-08-20T04:22:36.924Z,94.29
2018-08-20T04:23:36.941Z,94.59
2018-08-20T04:24:36.955Z,94.59
2018-08-20T04:25:36.978Z,94.20
2018-08-20T04:26:36.984Z,94.78
2018-08-20T04:27:37.002Z,95.16
2018-08-20T04:28:37.025Z,95.07
2018-08-20T04:29:37.034Z,94.78
2018-08-20T04:30:37.115Z,94.97
2018-08-20T04:31:37.065Z,94.39
2018-08-20T04:32:37.088Z,94.29
2018-08-20T04:33:37.097Z,94.87
2018-08-20T04:34:37.111Z,94.97
2018-08-20T04:35:37.139Z,94.87
2018-08-20T04:36:37.148Z,95.16
2018-08-20T04:37:37.167Z,94.49
2018-08-20T04:38:37.175Z,95.07
2018-08-20T04:39:37.197Z,94.10
2018-08-20T04:40:37.207Z,93.91
2018-08-20T04:41:37.499Z,93.81
2018-08-20T04:42:38.105Z,94.10
2018-08-20T04:43:37.491Z,94.01
2018-08-20T04:44:37.780Z,93.81
2018-08-20T04:46:37.300Z,94.10
2018-08-20T04:47:37.320Z,93.91
2018-08-20T04:48:37.337Z,94.68
2018-08-20T04:49:37.413Z,94.59
2018-08-20T04:50:37.436Z,94.68
2018-08-20T04:51:37.413Z,94.29
2018-08-20T04:52:37.942Z,94.97
2018-08-20T04:53:37.413Z,95.07
2018-08-20T04:54:37.438Z,95.36
2018-08-20T04:55:37.445Z,95.45
2018-08-20T04:56:37.466Z,94.78
2018-08-20T04:57:37.517Z,95.36
2018-08-20T04:58:37.539Z,94.87
2018-08-20T04:59:37.507Z,95.74
2018-08-20T05:00:37.601Z,95.84
2018-08-20T05:01:37.589Z,95.79
2018-08-20T05:02:37.555Z,96.03
2018-08-20T05:03:37.680Z,95.55
2018-08-20T05:04:37.958Z,96.22
2018-08-20T05:05:37.735Z,96.22
2018-08-20T05:06:37.615Z,96.32
2018-08-20T05:07:37.632Z,96.51
2018-08-20T05:08:37.672Z,96.03
2018-08-20T05:09:37.702Z,96.03
2018-08-20T05:10:37.682Z,96.12
2018-08-20T05:11:37.697Z,96.12
2018-08-20T05:12:37.708Z,95.74
2018-08-20T05:13:37.727Z,96.12
2018-08-20T05:14:37.741Z,96.32
2018-08-20T05:15:37.758Z,96.32
2018-08-20T05:16:37.773Z,96.42
2018-08-20T05:17:37.794Z,96.12
2018-08-20T05:18:37.803Z,96.12
2018-08-20T05:19:37.837Z,96.42
2018-08-20T05:20:37.845Z,95.94
2018-08-20T05:21:37.854Z,96.32
2018-08-20T05:22:37.869Z,96.22
2018-08-20T05:23:37.888Z,95.94
2018-08-20T05:24:37.901Z,96.03
2018-08-20T05:25:37.938Z,96.03
2018-08-20T05:26:37.934Z,96.22
2018-08-20T05:27:37.956Z,95.94
2018-08-20T05:28:37.963Z,95.84
2018-08-20T05:29:38.000Z,96.22
2018-08-20T05:30:38.002Z,96.22
2018-08-20T05:31:38.011Z,95.94
2018-08-20T05:32:38.026Z,96.12
2018-08-20T05:33:38.042Z,95.94
2018-08-20T05:34:38.083Z,96.12
2018-08-20T05:35:38.080Z,96.42
2018-08-20T05:36:38.133Z,96.22
2018-08-20T05:37:38.126Z,96.08
2018-08-20T05:38:38.131Z,96.12
2018-08-20T05:39:38.163Z,96.08
2018-08-20T05:40:38.160Z,96.32
2018-08-20T05:41:38.168Z,95.84
2018-08-20T05:42:38.192Z,96.27
2018-08-20T05:43:38.246Z,95.50
2018-08-20T05:44:38.249Z,95.79
2018-08-20T05:45:38.241Z,95.40
2018-08-20T05:47:38.307Z,95.74
2018-08-20T05:48:38.284Z,96.89
2018-08-20T05:49:38.294Z,96.61
2018-08-20T05:50:38.316Z,96.70
2018-08-20T05:51:38.327Z,96.89
2018-08-20T05:52:38.410Z,96.70
2018-08-20T05:53:38.357Z,96.22
2018-08-20T05:54:38.367Z,95.94
2018-08-20T05:55:38.762Z,96.27
2018-08-20T05:56:38.412Z,96.03
2018-08-20T05:57:38.816Z,96.22
2018-08-20T05:58:38.429Z,95.40
2018-08-20T05:59:38.450Z,96.17
2018-08-20T06:00:38.460Z,95.89
2018-08-20T06:01:38.476Z,95.64
2018-08-20T06:02:38.492Z,95.89
2018-08-20T06:03:38.552Z,96.12
2018-08-20T06:04:38.611Z,96.27
2018-08-20T06:05:38.835Z,96.27
2018-08-20T06:06:38.555Z,95.98
2018-08-20T06:07:38.592Z,95.89
2018-08-20T06:08:38.586Z,95.59
2018-08-20T06:09:38.602Z,95.21
2018-08-20T06:10:38.619Z,95.31
2018-08-20T06:11:38.633Z,94.92
2018-08-20T06:12:38.650Z,95.31
2018-08-20T06:13:38.664Z,95.11
2018-08-20T06:14:38.684Z,95.31
2018-08-20T06:15:38.737Z,95.21
2018-08-20T06:16:38.715Z,95.02
2018-08-20T06:17:38.729Z,95.21
2018-08-20T06:18:38.746Z,94.92
2018-08-20T06:19:38.760Z,94.82
2018-08-20T06:20:38.777Z,95.40
2018-08-20T06:21:38.792Z,95.59
2018-08-20T06:22:38.955Z,95.50
2018-08-20T06:23:38.824Z,95.40
2018-08-20T06:24:38.840Z,95.50
2018-08-20T06:25:38.856Z,95.21
2018-08-20T06:26:38.870Z,95.31
2018-08-20T06:27:38.887Z,95.40
2018-08-20T06:28:38.923Z,95.89
2018-08-20T06:29:38.919Z,95.79
2018-08-20T06:30:38.936Z,95.98
2018-08-20T06:31:38.952Z,96.08
2018-08-20T06:32:38.968Z,96.27
2018-08-20T06:33:38.981Z,96.75
2018-08-20T06:34:38.998Z,96.17
2018-08-20T06:35:39.033Z,96.27
2018-08-20T06:36:39.049Z,95.89
2018-08-20T06:37:39.044Z,95.40
2018-08-20T06:38:39.063Z,95.02
2018-08-20T06:39:39.077Z,95.21
2018-08-20T06:40:39.100Z,95.40
2018-08-20T06:41:39.157Z,94.54
2018-08-20T06:42:39.126Z,95.31
2018-08-20T06:43:39.141Z,95.59
2018-08-20T06:44:39.236Z,94.39
2018-08-20T06:45:39.175Z,94.68
2018-08-20T06:46:39.191Z,94.68
2018-08-20T06:47:39.207Z,94.00
2018-08-20T06:48:39.271Z,94.00
2018-08-20T06:49:39.269Z,94.29
2018-08-20T06:50:39.312Z,94.20
2018-08-20T06:51:39.267Z,94.58
2018-08-20T06:52:39.284Z,94.78
2018-08-20T06:53:39.330Z,94.68
2018-08-20T06:54:39.318Z,94.00
2018-08-20T06:55:39.331Z,94.44
2018-08-20T06:56:39.347Z,95.11
2018-08-20T06:57:39.363Z,95.50
2018-08-20T06:58:39.392Z,95.50
2018-08-20T06:59:39.835Z,94.63
2018-08-20T07:00:39.437Z,95.45
2018-08-20T07:01:39.426Z,95.21
2018-08-20T07:02:39.442Z,95.50
2018-08-20T07:03:39.460Z,95.11
2018-08-20T07:04:39.479Z,95.45
2018-08-20T07:05:39.492Z,95.45
2018-08-20T07:06:39.714Z,94.39
2018-08-20T07:07:39.529Z,94.58
2018-08-20T07:08:39.546Z,94.48
2018-08-20T07:09:39.555Z,94.48
2018-08-20T07:10:39.933Z,94.00
2018-08-20T07:11:41.040Z,93.91
2018-08-20T07:13:40.414Z,94.00
2018-08-20T07:14:40.116Z,94.48
2018-08-20T07:15:39.667Z,94.20
2018-08-20T07:16:39.670Z,93.91
2018-08-20T07:17:39.752Z,94.10
2018-08-20T07:18:39.722Z,93.81
2018-08-20T07:19:40.275Z,94.20
2018-08-20T07:20:40.376Z,94.24
2018-08-20T07:21:40.228Z,94.24
2018-08-20T07:22:39.936Z,93.28
2018-08-20T07:23:39.808Z,93.33
2018-08-20T07:24:39.797Z,94.20
2018-08-20T07:25:40.193Z,94.78
2018-08-20T07:26:39.828Z,95.45
2018-08-20T07:27:39.896Z,94.58
2018-08-20T07:28:39.863Z,94.68
2018-08-20T07:29:39.879Z,93.81
2018-08-20T07:30:39.892Z,94.29
2018-08-20T07:31:40.190Z,94.34
2018-08-20T07:32:39.925Z,92.94
2018-08-20T07:34:39.958Z,93.28
2018-08-20T07:35:39.973Z,93.57
2018-08-20T07:36:40.205Z,93.08
2018-08-20T07:37:40.017Z,93.37
2018-08-20T07:38:40.020Z,93.47
2018-08-20T07:39:40.041Z,92.70
2018-08-20T07:40:40.063Z,92.89
2018-08-20T07:41:40.138Z,92.41
2018-08-20T07:42:40.096Z,93.08
2018-08-20T07:43:40.102Z,93.08
2018-08-20T07:44:40.117Z,93.28
2018-08-20T07:45:40.135Z,92.89
2018-08-20T07:46:40.162Z,92.32
2018-08-20T07:47:40.168Z,92.74
2018-08-20T07:48:40.181Z,92.50
2018-08-20T07:49:40.199Z,92.60
2018-08-20T07:50:40.214Z,92.99
2018-08-20T07:51:40.231Z,93.08
2018-08-20T07:52:40.258Z,93.57
2018-08-20T07:54:40.278Z,92.99
2018-08-20T07:55:40.338Z,93.28
2018-08-20T07:56:40.364Z,93.57
2018-08-20T07:57:40.513Z,93.18
2018-08-20T07:58:40.347Z,93.18
2018-08-20T07:59:40.366Z,92.89
2018-08-20T08:00:40.376Z,93.18
2018-08-20T08:01:40.394Z,93.57
2018-08-20T08:02:40.418Z,93.18
2018-08-20T08:03:40.427Z,92.99
2018-08-20T08:04:40.453Z,92.89
2018-08-20T08:05:40.478Z,92.99
2018-08-20T08:06:40.474Z,93.18
2018-08-20T08:07:40.491Z,93.37
2018-08-20T08:08:40.570Z,93.08
2018-08-20T08:09:40.521Z,92.70
2018-08-20T08:10:40.550Z,92.80
2018-08-20T08:11:40.553Z,92.50
2018-08-20T08:12:40.579Z,92.55
2018-08-20T08:13:40.599Z,93.52
2018-08-20T08:14:40.603Z,93.42
2018-08-20T08:15:40.738Z,93.04
2018-08-20T08:16:40.736Z,93.08
2018-08-20T08:17:40.650Z,92.65
2018-08-20T08:18:40.666Z,93.28
2018-08-20T08:19:40.737Z,92.80
2018-08-20T08:20:40.711Z,93.57
2018-08-20T08:21:40.718Z,94.05
2018-08-20T08:22:40.759Z,94.15
2018-08-20T08:23:40.753Z,93.28
2018-08-20T08:24:40.863Z,94.34
2018-08-20T08:25:40.854Z,92.89
2018-08-20T08:26:40.805Z,92.99
2018-08-20T08:27:40.813Z,93.08
2018-08-20T08:28:41.064Z,93.37
2018-08-20T08:29:40.860Z,94.24
2018-08-20T08:30:40.865Z,93.18
2018-08-20T08:31:40.880Z,93.52
2018-08-20T08:32:40.892Z,92.89
2018-08-20T08:33:40.914Z,92.36
2018-08-20T08:34:40.931Z,92.41
2018-08-20T08:35:40.944Z,92.02
2018-08-20T08:36:40.960Z,92.26
2018-08-20T08:37:40.996Z,91.88
2018-08-20T08:38:40.998Z,91.97
2018-08-20T08:39:41.008Z,92.16
2018-08-20T08:40:41.045Z,91.59
2018-08-20T08:41:41.047Z,91.01
2018-08-20T08:42:41.056Z,91.78
2018-08-20T08:43:41.097Z,91.30
2018-08-20T08:44:41.096Z,92.07
2018-08-20T08:45:41.105Z,91.20
2018-08-20T08:46:41.124Z,91.59
2018-08-20T08:47:41.140Z,91.68
2018-08-20T08:48:41.161Z,91.39
2018-08-20T08:49:41.216Z,91.11
2018-08-20T08:50:41.191Z,91.01
2018-08-20T08:51:41.208Z,90.09
2018-08-20T08:52:41.222Z,90.05
2018-08-20T08:53:41.258Z,91.01
2018-08-20T08:54:41.254Z,90.53
2018-08-20T08:55:41.273Z,91.30
2018-08-20T08:56:41.786Z,91.20
2018-08-20T08:57:41.317Z,90.91
2018-08-20T08:58:41.316Z,90.19
2018-08-20T08:59:41.335Z,90.37
2018-08-20T09:00:41.432Z,89.79
2018-08-20T09:01:41.367Z,88.93
2018-08-20T09:02:41.382Z,88.64
2018-08-20T09:03:41.404Z,88.73
2018-08-20T09:04:41.422Z,88.93
2018-08-20T09:05:41.442Z,88.25
2018-08-20T09:06:41.457Z,88.10
2018-08-20T09:07:41.468Z,87.81
2018-08-20T09:08:41.487Z,87.33
2018-08-20T09:09:41.499Z,86.94
2018-08-20T09:10:41.523Z,86.69
2018-08-20T09:11:41.562Z,86.31
2018-08-20T09:12:41.560Z,86.21
2018-08-20T09:13:41.661Z,85.25
2018-08-20T09:14:41.588Z,86.17
2018-08-20T09:15:41.605Z,85.78
2018-08-20T09:16:42.759Z,85.78
2018-08-20T09:17:41.644Z,85.69
2018-08-20T09:18:41.653Z,85.21
2018-08-20T09:19:41.735Z,85.21
2018-08-20T09:20:41.793Z,85.98
2018-08-20T09:21:41.719Z,86.36
2018-08-20T09:22:41.774Z,86.56
2018-08-20T09:23:41.886Z,86.65
2018-08-20T09:24:41.762Z,86.17
2018-08-20T09:25:41.766Z,86.75
2018-08-20T09:26:41.786Z,86.46
2018-08-20T09:27:41.801Z,86.36
2018-08-20T09:28:41.825Z,86.46
2018-08-20T09:29:41.888Z,85.98
2018-08-20T09:30:41.947Z,86.07
2018-08-20T09:31:41.873Z,85.98
2018-08-20T09:32:41.888Z,86.02
2018-08-20T09:33:42.785Z,86.02
2018-08-20T09:34:41.912Z,85.30
2018-08-20T09:35:41.931Z,85.25
2018-08-20T09:36:41.949Z,85.11
2018-08-20T09:37:41.964Z,85.49
2018-08-20T09:38:41.991Z,86.07
2018-08-20T09:39:42.009Z,85.21
2018-08-20T09:40:42.471Z,85.30
2018-08-20T09:41:43.351Z,85.25
2018-08-20T09:43:42.067Z,84.82
2018-08-20T09:44:42.183Z,85.40
2018-08-20T09:45:42.101Z,84.67
2018-08-20T09:46:42.118Z,84.77
2018-08-20T09:47:42.133Z,83.70
2018-08-20T09:49:42.167Z,83.26
2018-08-20T09:50:42.239Z,82.68
2018-08-20T09:51:42.202Z,82.83
2018-08-20T09:52:42.269Z,83.99
2018-08-20T09:53:42.237Z,84.28
2018-08-20T09:54:42.251Z,84.95
2018-08-20T09:55:42.321Z,84.91
2018-08-20T09:56:42.418Z,84.91
2018-08-20T09:57:42.305Z,84.77
2018-08-20T09:58:42.319Z,85.25
2018-08-20T09:59:42.351Z,85.69
2018-08-20T10:00:42.410Z,86.11
2018-08-20T10:01:42.365Z,85.88
2018-08-20T10:02:42.382Z,86.27
2018-08-20T10:03:42.410Z,85.83
2018-08-20T10:04:42.416Z,85.11
2018-08-20T10:05:42.437Z,85.98
2018-08-20T10:06:42.468Z,86.27
2018-08-20T10:07:42.464Z,86.36
2018-08-20T10:08:42.491Z,86.17
2018-08-20T10:09:42.901Z,86.46
2018-08-20T10:10:42.529Z,86.85
2018-08-20T10:11:42.534Z,85.84
2018-08-20T10:12:42.559Z,86.22
2018-08-20T10:14:42.581Z,87.96
2018-08-20T10:15:42.633Z,87.96
2018-08-20T10:16:42.643Z,88.10
2018-08-20T10:17:42.637Z,88.25
2018-08-20T10:18:42.653Z,89.22
2018-08-20T10:19:42.667Z,88.35
2018-08-20T10:20:42.991Z,88.54
2018-08-20T10:21:42.768Z,89.03
2018-08-20T10:22:42.720Z,89.79
2018-08-20T10:23:42.744Z,91.05
2018-08-20T10:24:42.906Z,91.44
2018-08-20T10:25:42.764Z,92.11
2018-08-20T10:26:42.777Z,90.47
2018-08-20T10:27:42.794Z,89.89
2018-08-20T10:28:42.887Z,89.12
2018-08-20T10:29:42.831Z,89.07
2018-08-20T10:30:42.845Z,89.79
2018-08-20T10:31:42.914Z,89.95
2018-08-20T10:32:43.036Z,90.53
2018-08-20T10:33:42.895Z,91.11
2018-08-20T10:34:42.907Z,91.68
2018-08-20T10:35:42.977Z,92.65
2018-08-20T10:36:42.968Z,92.89
2018-08-20T10:37:43.006Z,94.48
2018-08-20T10:38:43.007Z,93.95
2018-08-20T10:39:42.991Z,95.21
2018-08-20T10:40:43.010Z,96.17
2018-08-20T10:41:43.026Z,96.94
2018-08-20T10:42:43.045Z,97.62
2018-08-20T10:43:43.118Z,99.07
2018-08-20T10:44:43.069Z,99.99
2018-08-20T10:45:43.098Z,99.99
2018-08-20T10:47:43.120Z,99.99
2018-08-20T10:48:43.146Z,99.99
2018-08-20T10:49:43.147Z,99.99
2018-08-20T10:50:43.168Z,99.99
2018-08-20T10:51:43.190Z,99.99
2018-08-20T10:52:43.219Z,99.99
2018-08-20T10:53:43.213Z,99.99
2018-08-20T10:54:43.230Z,99.99
2018-08-20T10:55:43.253Z,99.99
2018-08-20T10:56:44.245Z,99.99
2018-08-20T10:57:43.367Z,99.99
2018-08-20T10:58:43.319Z,99.99
2018-08-20T10:59:43.313Z,99.88
2018-08-20T11:00:43.326Z,99.79
2018-08-20T11:01:44.111Z,99.21
2018-08-20T11:02:43.516Z,99.99
2018-08-20T11:03:43.374Z,99.99
2018-08-20T11:04:43.389Z,99.99
2018-08-20T11:05:43.408Z,99.99
2018-08-20T11:06:43.425Z,99.21
2018-08-20T11:07:43.443Z,99.88
2018-08-20T11:08:43.453Z,99.79
2018-08-20T11:09:43.473Z,99.60
2018-08-20T11:10:43.617Z,99.35
2018-08-20T11:11:43.516Z,99.65
2018-08-20T11:12:43.528Z,99.65
2018-08-20T11:13:43.545Z,99.55
2018-08-20T11:14:43.549Z,97.42
2018-08-20T11:15:43.566Z,97.47
2018-08-20T11:16:43.587Z,98.10
2018-08-20T11:17:43.601Z,94.05
2018-08-20T11:18:43.688Z,95.93
2018-08-20T11:19:43.640Z,96.61
2018-08-20T11:20:43.648Z,95.64
2018-08-20T11:21:43.665Z,95.59
2018-08-20T11:22:43.731Z,94.77
2018-08-20T11:23:43.698Z,96.03
2018-08-20T11:24:43.716Z,96.03
2018-08-20T11:25:43.738Z,95.25
2018-08-20T11:26:43.768Z,94.48
2018-08-20T11:27:43.815Z,94.77
2018-08-20T11:28:43.780Z,95.45
2018-08-20T11:29:43.796Z,96.46
2018-08-20T11:30:43.820Z,95.93
2018-08-20T11:31:43.925Z,96.89
2018-08-20T11:32:43.847Z,96.41
2018-08-20T11:33:43.860Z,95.64
2018-08-20T11:34:43.877Z,95.16
2018-08-20T11:35:43.893Z,93.62
2018-08-20T11:36:44.001Z,94.10
2018-08-20T11:37:43.934Z,93.37
2018-08-20T11:38:43.950Z,91.73
2018-08-20T11:39:43.966Z,92.60
2018-08-20T11:40:43.978Z,93.08
2018-08-20T11:41:44.010Z,93.18
2018-08-20T11:42:44.014Z,88.45
2018-08-20T11:43:44.027Z,88.25
2018-08-20T11:44:44.044Z,89.03
2018-08-20T11:45:44.059Z,87.00
2018-08-20T11:47:44.094Z,86.90
2018-08-20T11:48:44.122Z,86.32
2018-08-20T11:49:44.122Z,86.22
2018-08-20T11:50:44.141Z,84.93
2018-08-20T11:51:44.166Z,85.84
2018-08-20T11:52:44.179Z,86.03
2018-08-20T11:53:44.190Z,84.83
2018-08-20T11:55:44.240Z,84.16
2018-08-20T11:56:44.306Z,84.44
2018-08-20T11:57:44.256Z,84.44
2018-08-20T11:58:44.276Z,84.93
2018-08-20T11:59:44.286Z,83.96
2018-08-20T12:00:44.310Z,83.52
2018-08-20T12:01:44.325Z,84.48
2018-08-20T12:02:44.361Z,83.14
2018-08-20T12:03:44.360Z,83.42
2018-08-20T12:04:44.373Z,84.39
2018-08-20T12:05:44.394Z,84.05
2018-08-20T12:06:44.423Z,83.56
2018-08-20T12:07:44.523Z,83.47
2018-08-20T12:08:44.440Z,81.92
2018-08-20T12:09:44.749Z,81.19
2018-08-20T12:10:44.466Z,82.21
2018-08-20T12:11:44.489Z,81.87
2018-08-20T12:12:44.527Z,81.29
2018-08-20T12:13:44.520Z,80.41
2018-08-20T12:14:44.535Z,79.16
2018-08-20T12:15:44.557Z,79.45
2018-08-20T12:16:44.588Z,79.78
2018-08-20T12:17:44.947Z,79.97
2018-08-20T12:18:44.832Z,79.00
2018-08-20T12:19:44.622Z,78.71
2018-08-20T12:20:44.637Z,79.10
2018-08-20T12:21:44.715Z,78.48
2018-08-20T12:22:44.675Z,79.10
2018-08-20T12:23:44.700Z,79.00
2018-08-20T12:24:44.707Z,79.45
2018-08-20T12:25:44.724Z,79.87
2018-08-20T12:26:44.741Z,79.97
2018-08-20T12:27:44.817Z,79.78
2018-08-20T12:28:44.786Z,79.24
2018-08-20T12:29:44.806Z,79.14
2018-08-20T12:30:44.812Z,78.02
2018-08-20T12:31:44.828Z,78.99
2018-08-20T12:32:44.845Z,77.96
2018-08-20T12:33:44.865Z,77.70
2018-08-20T12:34:44.883Z,77.32
2018-08-20T12:35:44.906Z,75.23
2018-08-20T12:36:45.006Z,76.68
2018-08-20T12:37:44.933Z,73.05
2018-08-20T12:38:44.957Z,75.11
2018-08-20T12:39:46.100Z,77.44
2018-08-20T12:40:44.991Z,77.63
2018-08-20T12:41:45.007Z,77.28
2018-08-20T12:42:45.027Z,77.28
2018-08-20T12:43:45.045Z,75.63
2018-08-20T12:44:45.065Z,76.41
2018-08-20T12:45:45.113Z,78.67
2018-08-20T12:46:45.111Z,75.28
2018-08-20T12:47:45.127Z,76.06
2018-08-20T12:48:45.160Z,76.10
2018-08-20T12:49:45.165Z,77.22
2018-08-20T12:50:45.201Z,75.42
2018-08-20T12:51:45.221Z,73.38
2018-08-20T12:52:45.214Z,73.67
2018-08-20T12:54:45.257Z,73.58
2018-08-20T12:55:45.306Z,72.99
2018-08-20T12:56:45.292Z,74.32
2018-08-20T12:57:45.307Z,74.51
2018-08-20T12:58:45.329Z,75.28
2018-08-20T12:59:45.352Z,73.28
2018-08-20T13:00:45.403Z,72.18
2018-08-20T13:01:45.385Z,72.12
2018-08-20T13:02:45.409Z,72.51
2018-08-20T13:03:45.455Z,71.93
2018-08-20T13:04:45.444Z,72.89